Time;durP1;ratioP1;P1;durP2;ratioP2;P2;SDS_P1;SDS_P2;PMS_P1;PMS_P2;Temp;Humidity;BMP_temperature;BMP_pressure;BME280_temperature;BME280_humidity;BME280_pressure;Samples;Min_cycle;Max_cycle;Signal;HPM_P1;HPM_P2
2021/09/16 00:00:45;;;;;;;2.63;1.30;;;;;;;;;;4984267;28;20675;-72
2021/09/16 00:03:11;;;;;;;3.22;1.75;;;;;;;;;;4988657;28;21747;-72
2021/09/16 00:05:36;;;;;;;5.57;1.42;;;;;;;;;;4984850;28;20707;-72
2021/09/16 00:08:01;;;;;;;4.43;1.80;;;;;;;;;;4982284;28;20581;-72
2021/09/16 00:10:26;;;;;;;2.83;1.40;;;;;;;;;;4994251;28;20607;-72
2021/09/16 00:12:52;;;;;;;7.43;2.00;;;;;;;;;;5007378;28;20184;-72
2021/09/16 00:15:17;;;;;;;5.15;2.58;;;;;;;;;;4995480;28;20221;-72
2021/09/16 00:17:42;;;;;;;1.88;1.17;;;;;;;;;;5002492;28;20175;-72
2021/09/16 00:20:08;;;;;;;3.45;2.08;;;;;;;;;;5003965;28;20195;-72
2021/09/16 00:22:33;;;;;;;4.32;1.77;;;;;;;;;;5009653;28;20203;-72
2021/09/16 00:24:58;;;;;;;2.63;1.55;;;;;;;;;;5009494;28;20188;-72
2021/09/16 00:27:23;;;;;;;2.33;1.45;;;;;;;;;;5031648;23;20283;-70
2021/09/16 00:29:49;;;;;;;3.55;1.90;;;;;;;;;;5024642;28;20289;-69
2021/09/16 00:32:14;;;;;;;4.82;1.80;;;;;;;;;;5027336;28;20615;-70
2021/09/16 00:34:39;;;;;;;4.20;1.90;;;;;;;;;;5029198;28;20233;-70
2021/09/16 00:37:04;;;;;;;5.40;1.67;;;;;;;;;;5027963;28;20990;-70
2021/09/16 00:39:29;;;;;;;3.15;1.83;;;;;;;;;;5025986;28;20179;-69
2021/09/16 00:41:54;;;;;;;5.97;2.00;;;;;;;;;;5028437;28;20193;-71
2021/09/16 00:44:20;;;;;;;3.65;1.60;;;;;;;;;;5031293;28;20624;-69
2021/09/16 00:46:45;;;;;;;4.63;1.60;;;;;;;;;;5020272;28;20208;-70
2021/09/16 00:49:10;;;;;;;3.88;1.80;;;;;;;;;;5026619;28;20283;-70
2021/09/16 00:51:38;;;;;;;4.25;2.35;;;;;;;;;;5029427;28;20244;-70
2021/09/16 00:54:04;;;;;;;4.97;1.70;;;;;;;;;;5026627;28;20182;-70
2021/09/16 00:56:30;;;;;;;3.53;1.70;;;;;;;;;;5025295;28;20256;-70
2021/09/16 00:58:58;;;;;;;3.33;1.70;;;;;;;;;;5024207;28;20187;-70
2021/09/16 01:01:23;;;;;;;4.10;1.52;;;;;;;;;;5019776;28;20175;-70
2021/09/16 01:03:48;;;;;;;5.43;2.22;;;;;;;;;;5020676;28;20252;-70
2021/09/16 01:06:13;;;;;;;2.50;1.48;;;;;;;;;;5023585;28;20214;-71
2021/09/16 01:08:39;;;;;;;7.82;2.55;;;;;;;;;;5017870;28;20293;-71
2021/09/16 01:11:05;;;;;;;6.35;2.47;;;;;;;;;;5020463;28;20181;-70
2021/09/16 01:13:30;;;;;;;4.28;1.80;;;;;;;;;;5018378;28;22849;-70
2021/09/16 01:15:56;;;;;;;2.00;1.70;;;;;;;;;;5013295;28;20237;-70
2021/09/16 01:18:22;;;;;;;3.88;1.60;;;;;;;;;;5004588;28;20672;-70
2021/09/16 01:20:47;;;;;;;3.58;1.80;;;;;;;;;;5026049;28;20182;-70
2021/09/16 01:23:12;;;;;;;5.82;1.45;;;;;;;;;;5008535;28;20223;-70
2021/09/16 01:25:38;;;;;;;5.35;2.20;;;;;;;;;;5017638;28;20175;-70
2021/09/16 01:28:03;;;;;;;7.35;2.28;;;;;;;;;;5022871;28;20299;-70
2021/09/16 01:30:28;;;;;;;7.18;1.70;;;;;;;;;;5025271;28;20236;-70
2021/09/16 01:32:55;;;;;;;4.85;1.67;;;;;;;;;;5034278;28;20185;-70
2021/09/16 01:35:20;;;;;;;3.30;1.80;;;;;;;;;;5031186;28;20171;-70
2021/09/16 01:37:45;;;;;;;2.83;1.90;;;;;;;;;;5032256;28;20178;-70
2021/09/16 01:40:11;;;;;;;4.43;1.80;;;;;;;;;;5028989;28;20191;-70
2021/09/16 01:42:43;;;;;;;4.35;2.40;;;;;;;;;;5032409;28;20232;-70
2021/09/16 01:45:19;;;;;;;2.38;1.80;;;;;;;;;;5028555;28;20648;-70
2021/09/16 01:47:44;;;;;;;6.55;2.00;;;;;;;;;;5029395;28;20197;-71
2021/09/16 01:50:11;;;;;;;3.47;1.70;;;;;;;;;;5031313;28;20182;-70
2021/09/16 01:52:36;;;;;;;2.85;1.58;;;;;;;;;;5031956;28;20182;-70
2021/09/16 01:55:01;;;;;;;2.40;1.35;;;;;;;;;;5031305;28;20182;-70
2021/09/16 01:57:27;;;;;;;8.00;1.67;;;;;;;;;;5031679;28;20201;-70
2021/09/16 01:59:52;;;;;;;4.78;2.13;;;;;;;;;;5014175;28;20281;-70
2021/09/16 02:02:17;;;;;;;5.15;1.38;;;;;;;;;;5027264;28;20189;-70
2021/09/16 02:04:42;;;;;;;4.93;1.70;;;;;;;;;;5032093;28;20225;-70
2021/09/16 02:07:07;;;;;;;5.20;1.90;;;;;;;;;;5028320;28;20627;-70
2021/09/16 02:09:32;;;;;;;4.33;1.23;;;;;;;;;;5032698;28;20198;-70
2021/09/16 02:11:58;;;;;;;5.97;1.85;;;;;;;;;;5029350;28;20857;-70
2021/09/16 02:14:23;;;;;;;5.27;1.50;;;;;;;;;;5024723;28;20171;-70
2021/09/16 02:16:48;;;;;;;5.40;1.65;;;;;;;;;;5003604;28;20442;-70
2021/09/16 02:19:13;;;;;;;3.13;1.70;;;;;;;;;;5029556;28;20193;-70
2021/09/16 02:21:38;;;;;;;6.78;1.58;;;;;;;;;;5012625;28;20851;-70
2021/09/16 02:24:04;;;;;;;4.63;1.40;;;;;;;;;;5030389;28;20196;-70
2021/09/16 02:26:29;;;;;;;4.70;1.30;;;;;;;;;;5028441;28;20233;-70
2021/09/16 02:28:54;;;;;;;5.20;1.63;;;;;;;;;;5013465;28;20256;-70
2021/09/16 02:31:19;;;;;;;6.22;1.38;;;;;;;;;;5028158;28;20170;-70
2021/09/16 02:33:44;;;;;;;2.47;1.52;;;;;;;;;;5028792;28;20170;-70
2021/09/16 02:36:10;;;;;;;5.05;1.48;;;;;;;;;;5030728;28;20195;-70
2021/09/16 02:38:35;;;;;;;3.95;1.38;;;;;;;;;;5004723;28;20183;-69
2021/09/16 02:41:00;;;;;;;3.20;1.20;;;;;;;;;;5029278;28;20559;-70
2021/09/16 02:43:25;;;;;;;4.20;1.25;;;;;;;;;;5029188;28;20201;-70
2021/09/16 02:45:50;;;;;;;5.63;1.20;;;;;;;;;;5029233;28;20202;-70
2021/09/16 02:48:15;;;;;;;3.63;1.90;;;;;;;;;;5029985;28;21061;-70
2021/09/16 02:50:41;;;;;;;3.22;1.17;;;;;;;;;;5030435;28;20189;-70
2021/09/16 02:53:06;;;;;;;4.13;1.17;;;;;;;;;;5027864;28;20175;-70
2021/09/16 02:55:32;;;;;;;6.43;1.58;;;;;;;;;;5030187;28;20189;-70
2021/09/16 02:57:57;;;;;;;2.20;1.02;;;;;;;;;;5026771;28;20232;-70
2021/09/16 03:00:22;;;;;;;4.80;1.10;;;;;;;;;;5028592;28;22096;-70
2021/09/16 03:02:47;;;;;;;4.68;1.20;;;;;;;;;;5028084;28;20205;-72
2021/09/16 03:05:13;;;;;;;2.22;1.20;;;;;;;;;;5025688;28;20189;-71
2021/09/16 03:07:38;;;;;;;3.85;1.10;;;;;;;;;;5033271;28;20550;-71
2021/09/16 03:10:04;;;;;;;4.90;1.85;;;;;;;;;;5024106;28;20582;-71
2021/09/16 03:12:29;;;;;;;4.70;1.27;;;;;;;;;;5032576;28;20174;-71
2021/09/16 03:14:54;;;;;;;3.72;1.05;;;;;;;;;;5029362;28;20232;-72
2021/09/16 03:17:19;;;;;;;3.25;1.30;;;;;;;;;;5017320;28;20627;-71
2021/09/16 03:19:44;;;;;;;3.65;1.17;;;;;;;;;;5022819;28;20179;-71
2021/09/16 03:22:10;;;;;;;3.70;0.90;;;;;;;;;;5026862;28;20213;-71
2021/09/16 03:24:35;;;;;;;3.13;1.20;;;;;;;;;;5029343;28;20423;-71
2021/09/16 03:27:00;;;;;;;2.92;0.88;;;;;;;;;;5009176;28;20226;-71
2021/09/16 03:29:25;;;;;;;5.97;2.00;;;;;;;;;;5029596;28;20194;-71
2021/09/16 03:31:52;;;;;;;3.50;1.17;;;;;;;;;;5012299;28;20534;-71
2021/09/16 03:34:17;;;;;;;5.05;1.35;;;;;;;;;;5031289;28;20419;-71
2021/09/16 03:36:42;;;;;;;1.50;0.98;;;;;;;;;;5029196;28;20675;-71
2021/09/16 03:39:08;;;;;;;4.38;1.40;;;;;;;;;;5023869;28;20619;-71
2021/09/16 03:41:33;;;;;;;6.15;1.42;;;;;;;;;;5029605;28;20703;-71
2021/09/16 03:43:59;;;;;;;4.15;1.27;;;;;;;;;;5023856;28;20209;-71
2021/09/16 03:46:24;;;;;;;7.53;1.65;;;;;;;;;;5030564;28;20579;-71
2021/09/16 03:48:49;;;;;;;2.58;1.27;;;;;;;;;;5026835;28;20234;-71
2021/09/16 03:51:14;;;;;;;5.68;2.40;;;;;;;;;;5031582;28;20236;-71
2021/09/16 03:53:39;;;;;;;1.88;1.10;;;;;;;;;;5023151;28;20893;-71
2021/09/16 03:56:05;;;;;;;4.18;1.40;;;;;;;;;;5009449;28;20203;-71
2021/09/16 03:58:30;;;;;;;4.53;1.48;;;;;;;;;;5025789;28;20321;-70
2021/09/16 04:00:56;;;;;;;4.03;1.48;;;;;;;;;;5023756;28;20182;-70
2021/09/16 04:03:21;;;;;;;3.72;1.25;;;;;;;;;;5030554;28;20186;-71
2021/09/16 04:05:46;;;;;;;6.57;1.43;;;;;;;;;;5025029;28;20214;-71
2021/09/16 04:08:12;;;;;;;5.82;1.60;;;;;;;;;;5030537;28;20552;-70
2021/09/16 04:10:38;;;;;;;8.20;1.55;;;;;;;;;;5028504;28;20187;-70
2021/09/16 04:13:03;;;;;;;1.65;1.10;;;;;;;;;;5030410;28;20185;-71
2021/09/16 04:15:28;;;;;;;5.07;1.48;;;;;;;;;;5029979;28;20257;-71
2021/09/16 04:17:53;;;;;;;5.43;2.20;;;;;;;;;;5004424;28;20186;-71
2021/09/16 04:20:19;;;;;;;4.93;1.38;;;;;;;;;;5012709;28;20183;-71
2021/09/16 04:22:44;;;;;;;3.05;1.30;;;;;;;;;;5008802;28;20187;-71
2021/09/16 04:25:09;;;;;;;1.92;1.00;;;;;;;;;;5013086;28;20202;-71
2021/09/16 04:27:34;;;;;;;3.22;1.13;;;;;;;;;;4996281;28;20268;-71
2021/09/16 04:29:59;;;;;;;4.15;1.70;;;;;;;;;;4994747;28;20214;-71
2021/09/16 04:32:25;;;;;;;3.10;1.35;;;;;;;;;;4993191;28;20553;-71
2021/09/16 04:34:50;;;;;;;5.95;2.30;;;;;;;;;;5011628;28;20266;-71
2021/09/16 04:37:16;;;;;;;4.68;1.40;;;;;;;;;;4995080;28;20690;-71
2021/09/16 04:39:41;;;;;;;5.13;1.88;;;;;;;;;;5007515;28;20317;-71
2021/09/16 04:42:06;;;;;;;5.10;1.60;;;;;;;;;;5009170;28;20265;-71
2021/09/16 04:44:32;;;;;;;5.10;1.30;;;;;;;;;;4992727;28;20190;-71
2021/09/16 04:46:57;;;;;;;5.68;1.50;;;;;;;;;;5013080;28;20264;-71
2021/09/16 04:49:23;;;;;;;4.53;1.77;;;;;;;;;;5008306;28;20521;-71
2021/09/16 04:51:48;;;;;;;4.50;1.25;;;;;;;;;;5013899;28;20182;-71
2021/09/16 04:54:13;;;;;;;2.80;0.98;;;;;;;;;;5008082;28;20600;-71
2021/09/16 04:56:38;;;;;;;3.83;1.00;;;;;;;;;;5011930;28;20202;-71
2021/09/16 04:59:03;;;;;;;2.60;1.00;;;;;;;;;;5008447;28;20222;-71
2021/09/16 05:01:28;;;;;;;4.38;1.23;;;;;;;;;;5007185;28;20178;-71
2021/09/16 05:03:54;;;;;;;4.13;1.10;;;;;;;;;;5008881;28;20202;-71
2021/09/16 05:06:19;;;;;;;5.18;1.00;;;;;;;;;;4996650;28;20194;-71
2021/09/16 05:08:44;;;;;;;2.85;1.23;;;;;;;;;;5007789;28;20206;-71
2021/09/16 05:11:10;;;;;;;2.40;1.38;;;;;;;;;;5010445;28;20175;-71
2021/09/16 05:13:35;;;;;;;2.83;1.58;;;;;;;;;;5008584;28;20189;-71
2021/09/16 05:16:00;;;;;;;3.90;0.90;;;;;;;;;;5009322;28;20963;-70
2021/09/16 05:18:28;;;;;;;5.45;1.10;;;;;;;;;;4993415;28;20179;-71
2021/09/16 05:20:54;;;;;;;4.50;1.52;;;;;;;;;;5011231;28;20265;-71
2021/09/16 05:23:19;;;;;;;4.20;1.20;;;;;;;;;;5014365;28;20711;-71
2021/09/16 05:25:44;;;;;;;2.57;1.43;;;;;;;;;;5013318;28;20446;-71
2021/09/16 05:28:09;;;;;;;3.90;1.40;;;;;;;;;;5009358;28;20533;-71
2021/09/16 05:30:34;;;;;;;4.93;1.58;;;;;;;;;;5011002;28;20182;-71
2021/09/16 05:32:59;;;;;;;4.50;1.73;;;;;;;;;;4993318;28;20279;-71
2021/09/16 05:35:25;;;;;;;3.60;1.55;;;;;;;;;;4996607;28;20244;-70
2021/09/16 05:37:50;;;;;;;2.40;1.30;;;;;;;;;;5010921;28;20187;-70
2021/09/16 05:40:16;;;;;;;3.95;1.67;;;;;;;;;;5010945;28;20619;-71
2021/09/16 05:42:41;;;;;;;5.63;1.83;;;;;;;;;;4993911;28;22150;-70
2021/09/16 05:45:07;;;;;;;3.30;1.70;;;;;;;;;;5014823;28;20572;-71
2021/09/16 05:47:32;;;;;;;4.80;1.80;;;;;;;;;;5006541;28;20199;-71
2021/09/16 05:49:58;;;;;;;4.30;1.70;;;;;;;;;;5008598;28;20217;-71
2021/09/16 05:52:23;;;;;;;5.07;1.73;;;;;;;;;;5011158;28;20179;-71
2021/09/16 05:54:48;;;;;;;4.43;2.00;;;;;;;;;;5006702;28;20189;-71
2021/09/16 05:57:13;;;;;;;7.65;2.20;;;;;;;;;;5012926;28;20194;-71
2021/09/16 05:59:38;;;;;;;2.67;1.85;;;;;;;;;;5007736;28;20704;-71
2021/09/16 06:02:04;;;;;;;7.22;2.67;;;;;;;;;;5008136;28;20640;-71
2021/09/16 06:04:30;;;;;;;3.63;2.30;;;;;;;;;;5007022;28;20193;-71
2021/09/16 06:06:55;;;;;;;3.75;1.80;;;;;;;;;;4998418;28;20202;-71
2021/09/16 06:09:21;;;;;;;4.43;1.73;;;;;;;;;;5005864;28;20202;-71
2021/09/16 06:11:46;;;;;;;5.43;1.70;;;;;;;;;;5011542;28;20171;-71
2021/09/16 06:14:11;;;;;;;7.10;2.28;;;;;;;;;;5008354;28;20178;-71
2021/09/16 06:16:36;;;;;;;4.57;1.97;;;;;;;;;;5008872;28;20669;-71
2021/09/16 06:19:01;;;;;;;5.00;2.08;;;;;;;;;;5012952;28;20422;-72
2021/09/16 06:21:26;;;;;;;4.65;2.45;;;;;;;;;;5013487;28;20679;-71
2021/09/16 06:23:52;;;;;;;10.00;2.58;;;;;;;;;;5017293;28;20203;-71
2021/09/16 06:26:17;;;;;;;3.67;1.70;;;;;;;;;;5022311;22;20231;-71
2021/09/16 06:28:42;;;;;;;5.97;1.85;;;;;;;;;;4995250;28;20207;-72
2021/09/16 06:31:07;;;;;;;3.25;1.67;;;;;;;;;;4994795;28;20258;-71
2021/09/16 06:33:32;;;;;;;4.68;1.83;;;;;;;;;;4996341;28;20183;-69
2021/09/16 06:35:57;;;;;;;4.38;2.10;;;;;;;;;;4994185;28;20212;-70
2021/09/16 06:38:23;;;;;;;8.45;1.85;;;;;;;;;;4972618;28;20204;-69
2021/09/16 06:40:48;;;;;;;4.47;1.85;;;;;;;;;;4973003;28;20198;-72
2021/09/16 06:43:13;;;;;;;3.97;1.90;;;;;;;;;;4974226;28;20219;-69
2021/09/16 06:45:38;;;;;;;5.25;1.65;;;;;;;;;;4977001;28;20241;-69
2021/09/16 06:48:03;;;;;;;4.65;1.40;;;;;;;;;;4972578;28;20192;-69
2021/09/16 06:50:30;;;;;;;6.47;1.70;;;;;;;;;;4958097;28;20188;-69
2021/09/16 06:52:55;;;;;;;2.85;1.63;;;;;;;;;;4972843;28;20184;-69
2021/09/16 06:55:20;;;;;;;4.83;1.60;;;;;;;;;;4977121;28;20184;-69
2021/09/16 06:57:45;;;;;;;3.25;1.10;;;;;;;;;;4973985;28;21167;-69
2021/09/16 07:00:11;;;;;;;1.50;1.13;;;;;;;;;;4979328;28;20184;-70
2021/09/16 07:02:36;;;;;;;1.75;1.10;;;;;;;;;;4975502;28;21009;-69
2021/09/16 07:05:02;;;;;;;3.45;1.25;;;;;;;;;;4959134;28;20556;-69
2021/09/16 07:07:27;;;;;;;3.47;1.60;;;;;;;;;;4975596;28;20208;-71
2021/09/16 07:09:52;;;;;;;6.70;1.77;;;;;;;;;;4973269;28;20204;-70
2021/09/16 07:12:18;;;;;;;4.00;1.73;;;;;;;;;;4974507;28;20187;-70
2021/09/16 07:14:44;;;;;;;4.60;1.60;;;;;;;;;;4971771;28;20270;-70
2021/09/16 07:17:09;;;;;;;3.17;1.17;;;;;;;;;;4970584;28;20446;-70
2021/09/16 07:19:35;;;;;;;3.45;1.30;;;;;;;;;;4970177;28;20186;-71
2021/09/16 07:22:00;;;;;;;3.00;1.17;;;;;;;;;;4980011;28;20180;-71
2021/09/16 07:24:25;;;;;;;5.85;1.42;;;;;;;;;;4972209;28;20250;-71
2021/09/16 07:26:50;;;;;;;3.10;1.17;;;;;;;;;;4974304;28;20208;-70
2021/09/16 07:29:19;;;;;;;3.67;1.20;;;;;;;;;;4970142;28;20457;-70
2021/09/16 07:31:44;;;;;;;2.83;1.40;;;;;;;;;;4972089;28;20305;-70
2021/09/16 07:34:10;;;;;;;4.93;1.30;;;;;;;;;;4971731;28;20268;-71
2021/09/16 07:36:35;;;;;;;8.00;1.20;;;;;;;;;;4975164;28;20504;-71
2021/09/16 07:39:00;;;;;;;7.45;1.60;;;;;;;;;;4974874;28;20262;-70
2021/09/16 07:41:26;;;;;;;5.07;1.33;;;;;;;;;;4976590;28;20195;-70
2021/09/16 07:43:51;;;;;;;3.53;0.98;;;;;;;;;;4973861;28;20433;-70
2021/09/16 07:46:16;;;;;;;6.37;1.17;;;;;;;;;;4971608;28;20841;-70
2021/09/16 07:48:41;;;;;;;6.78;1.52;;;;;;;;;;4972499;28;20950;-70
2021/09/16 07:51:06;;;;;;;5.27;2.10;;;;;;;;;;4977367;28;20208;-70
2021/09/16 07:53:31;;;;;;;2.80;0.90;;;;;;;;;;4973174;28;20442;-71
2021/09/16 07:55:57;;;;;;;3.97;1.38;;;;;;;;;;4972781;28;20554;-71
2021/09/16 07:58:23;;;;;;;2.33;1.00;;;;;;;;;;4971648;28;20658;-71
2021/09/16 08:00:48;;;;;;;4.43;1.50;;;;;;;;;;4974552;28;20204;-70
2021/09/16 08:03:13;;;;;;;4.13;1.00;;;;;;;;;;4973756;28;20204;-70
2021/09/16 08:05:40;;;;;;;8.57;1.65;;;;;;;;;;4959021;28;20191;-71
2021/09/16 08:08:05;;;;;;;3.33;1.20;;;;;;;;;;4971746;28;20858;-71
2021/09/16 08:10:30;;;;;;;3.00;1.05;;;;;;;;;;4971800;28;20180;-72
2021/09/16 08:12:55;;;;;;;3.40;0.98;;;;;;;;;;4959353;28;20179;-71
2021/09/16 08:15:20;;;;;;;2.80;1.00;;;;;;;;;;4976517;28;20673;-69
2021/09/16 08:17:46;;;;;;;2.05;1.00;;;;;;;;;;4972955;28;20441;-70
2021/09/16 08:20:11;;;;;;;2.60;1.10;;;;;;;;;;4974132;28;20191;-68
2021/09/16 08:22:37;;;;;;;4.55;2.05;;;;;;;;;;4977972;28;20279;-69
2021/09/16 08:25:03;;;;;;;3.08;0.98;;;;;;;;;;4970545;28;20282;-69
2021/09/16 08:27:28;;;;;;;4.95;1.38;;;;;;;;;;4972204;28;20207;-69
2021/09/16 08:29:53;;;;;;;3.40;0.90;;;;;;;;;;4971189;28;20262;-69
2021/09/16 08:32:19;;;;;;;2.55;1.05;;;;;;;;;;4957180;28;20251;-69
2021/09/16 08:34:44;;;;;;;4.18;1.10;;;;;;;;;;4973332;28;21578;-72
2021/09/16 08:37:10;;;;;;;5.80;2.38;;;;;;;;;;4974790;28;20211;-70
2021/09/16 08:39:35;;;;;;;4.70;1.23;;;;;;;;;;4975548;28;20183;-70
2021/09/16 08:42:00;;;;;;;3.88;1.00;;;;;;;;;;4979954;28;20188;-69
2021/09/16 08:44:25;;;;;;;4.40;1.00;;;;;;;;;;4976775;28;20183;-71
2021/09/16 08:46:51;;;;;;;2.83;1.23;;;;;;;;;;4957780;28;20533;-70
2021/09/16 08:49:16;;;;;;;3.58;1.00;;;;;;;;;;4973945;28;20480;-69
2021/09/16 08:51:42;;;;;;;4.63;0.83;;;;;;;;;;4974025;28;20195;-69
2021/09/16 08:54:08;;;;;;;2.53;1.00;;;;;;;;;;4973995;28;20806;-68
2021/09/16 08:56:33;;;;;;;3.53;1.00;;;;;;;;;;4981262;28;20799;-70
2021/09/16 08:59:02;;;;;;;7.53;1.30;;;;;;;;;;4990853;28;20254;-69
2021/09/16 09:01:27;;;;;;;3.85;0.93;;;;;;;;;;4989936;28;20191;-69
2021/09/16 09:03:53;;;;;;;1.77;0.70;;;;;;;;;;4989952;28;20187;-69
2021/09/16 09:06:34;;;;;;;3.50;1.00;;;;;;;;;;4984528;28;20563;-69
2021/09/16 09:09:11;;;;;;;3.65;1.00;;;;;;;;;;4980016;28;20666;-69
2021/09/16 09:11:55;;;;;;;4.75;1.20;;;;;;;;;;4977984;28;20256;-70
2021/09/16 09:14:22;;;;;;;3.47;1.00;;;;;;;;;;4968393;28;20187;-69
2021/09/16 09:16:47;;;;;;;4.97;0.90;;;;;;;;;;4972053;28;20334;-73
2021/09/16 09:19:13;;;;;;;4.32;1.00;;;;;;;;;;4971077;28;20677;-69
2021/09/16 09:21:38;;;;;;;2.55;0.70;;;;;;;;;;4976738;28;20493;-69
2021/09/16 09:24:03;;;;;;;3.13;0.70;;;;;;;;;;4972197;28;20263;-69
2021/09/16 09:26:30;;;;;;;3.60;1.00;;;;;;;;;;4971386;28;20811;-70
2021/09/16 09:29:07;;;;;;;2.05;0.93;;;;;;;;;;4970803;28;20497;-70
2021/09/16 09:31:34;;;;;;;1.77;0.85;;;;;;;;;;4977267;28;20635;-70
2021/09/16 09:33:59;;;;;;;2.70;0.85;;;;;;;;;;4980184;28;21810;-70
2021/09/16 09:36:24;;;;;;;2.77;0.90;;;;;;;;;;4975857;28;20571;-69
2021/09/16 09:38:50;;;;;;;3.42;1.23;;;;;;;;;;4971216;28;20437;-69
2021/09/16 09:41:25;;;;;;;6.20;1.08;;;;;;;;;;4971987;28;20581;-70
2021/09/16 09:43:59;;;;;;;3.03;0.90;;;;;;;;;;4970218;28;20188;-69
2021/09/16 09:46:24;;;;;;;2.25;1.10;;;;;;;;;;4981157;28;20203;-70
2021/09/16 09:48:58;;;;;;;3.37;0.90;;;;;;;;;;4986254;28;20203;-70
2021/09/16 09:51:34;;;;;;;3.47;0.88;;;;;;;;;;4978836;28;20429;-70
2021/09/16 09:54:11;;;;;;;2.53;1.00;;;;;;;;;;4974663;28;20898;-70
2021/09/16 09:56:36;;;;;;;3.72;0.80;;;;;;;;;;4974727;28;20445;-74
2021/09/16 09:59:02;;;;;;;1.73;0.80;;;;;;;;;;4972431;28;20624;-71
2021/09/16 10:01:34;;;;;;;4.65;1.33;;;;;;;;;;4982221;28;20429;-71
2021/09/16 10:04:19;;;;;;;1.40;1.00;;;;;;;;;;4972950;28;20176;-71
2021/09/16 10:06:45;;;;;;;1.85;0.60;;;;;;;;;;4980019;28;20217;-71
2021/09/16 10:09:11;;;;;;;1.13;1.00;;;;;;;;;;4975857;28;20208;-71
2021/09/16 10:11:40;;;;;;;0.73;0.55;;;;;;;;;;4972990;28;20433;-71
2021/09/16 10:14:05;;;;;;;7.05;1.27;;;;;;;;;;4975843;28;20187;-71
2021/09/16 10:16:30;;;;;;;2.33;1.02;;;;;;;;;;4983028;28;20199;-71
2021/09/16 10:18:56;;;;;;;3.10;0.95;;;;;;;;;;4975958;28;20190;-71
2021/09/16 10:21:21;;;;;;;2.67;0.80;;;;;;;;;;4982213;28;20206;-71
2021/09/16 10:23:47;;;;;;;2.70;1.17;;;;;;;;;;4978671;28;20950;-73
2021/09/16 10:26:28;;;;;;;2.42;0.77;;;;;;;;;;4974947;28;20215;-73
2021/09/16 10:28:53;;;;;;;3.00;0.95;;;;;;;;;;4972708;28;20211;-71
2021/09/16 10:31:20;;;;;;;3.93;0.90;;;;;;;;;;4972921;28;20180;-71
2021/09/16 10:33:45;;;;;;;2.78;0.70;;;;;;;;;;4967252;28;20521;-71
2021/09/16 10:36:10;;;;;;;2.23;0.70;;;;;;;;;;4977870;28;20214;-69
2021/09/16 10:38:38;;;;;;;2.22;0.90;;;;;;;;;;4972234;28;20433;-70
2021/09/16 10:41:22;;;;;;;3.03;1.00;;;;;;;;;;4979049;28;20183;-70
2021/09/16 10:43:56;;;;;;;3.30;0.80;;;;;;;;;;4978406;28;20298;-69
2021/09/16 10:46:23;;;;;;;4.13;1.00;;;;;;;;;;4973667;28;20300;-71
2021/09/16 10:48:49;;;;;;;5.07;0.85;;;;;;;;;;4982123;28;20196;-71
2021/09/16 10:51:14;;;;;;;1.77;0.65;;;;;;;;;;4992193;28;20190;-71
2021/09/16 10:53:43;;;;;;;3.50;0.73;;;;;;;;;;4994405;28;20536;-71
2021/09/16 10:56:28;;;;;;;1.10;0.60;;;;;;;;;;4983482;28;20204;-72
2021/09/16 10:58:54;;;;;;;1.95;0.98;;;;;;;;;;4981544;28;20646;-69
2021/09/16 11:01:38;;;;;;;1.88;0.70;;;;;;;;;;4972371;28;20183;-68
2021/09/16 11:04:03;;;;;;;3.60;0.70;;;;;;;;;;4974092;28;20183;-69
2021/09/16 11:06:47;;;;;;;2.17;0.60;;;;;;;;;;4979433;28;20560;-68
2021/09/16 11:09:13;;;;;;;1.23;0.65;;;;;;;;;;4970996;28;20952;-69
2021/09/16 11:11:46;;;;;;;2.20;0.85;;;;;;;;;;4975054;28;20658;-68
2021/09/16 11:14:23;;;;;;;4.25;0.95;;;;;;;;;;4976495;28;20207;-69
2021/09/16 11:16:52;;;;;;;1.73;0.98;;;;;;;;;;4980205;28;20270;-70
2021/09/16 11:19:18;;;;;;;1.75;0.95;;;;;;;;;;4985495;28;20641;-71
2021/09/16 11:21:43;;;;;;;1.30;0.88;;;;;;;;;;4983741;28;20248;-70
2021/09/16 11:24:08;;;;;;;2.50;1.00;;;;;;;;;;4973272;28;20191;-70
2021/09/16 11:26:33;;;;;;;1.92;0.80;;;;;;;;;;4976896;28;20646;-70
2021/09/16 11:29:00;;;;;;;2.30;0.82;;;;;;;;;;4989415;28;20215;-70
2021/09/16 11:31:25;;;;;;;1.40;1.08;;;;;;;;;;4981133;28;20183;-70
2021/09/16 11:34:02;;;;;;;3.63;1.10;;;;;;;;;;4970747;28;20461;-70
2021/09/16 11:36:27;;;;;;;1.30;0.93;;;;;;;;;;4984699;28;20230;-70
2021/09/16 11:39:12;;;;;;;3.37;1.20;;;;;;;;;;4975096;28;20654;-70
2021/09/16 11:41:37;;;;;;;2.30;1.48;;;;;;;;;;4979982;28;20192;-69
2021/09/16 11:44:09;;;;;;;1.40;1.00;;;;;;;;;;4973972;28;20192;-70
2021/09/16 11:46:34;;;;;;;2.10;1.17;;;;;;;;;;4972208;28;20856;-71
2021/09/16 11:49:02;;;;;;;2.40;1.10;;;;;;;;;;4976520;28;20216;-70
2021/09/16 11:51:28;;;;;;;1.17;0.70;;;;;;;;;;4974202;28;20180;-70
2021/09/16 11:54:07;;;;;;;4.75;1.00;;;;;;;;;;4953562;28;20261;-70
2021/09/16 11:56:33;;;;;;;1.67;1.30;;;;;;;;;;4976336;28;20709;-69
2021/09/16 11:59:06;;;;;;;2.33;1.33;;;;;;;;;;4972902;28;20199;-70
2021/09/16 12:01:31;;;;;;;4.72;2.17;;;;;;;;;;4976581;28;20452;-70
2021/09/16 12:04:00;;;;;;;1.93;1.40;;;;;;;;;;4974396;28;20653;-70
2021/09/16 12:06:25;;;;;;;2.20;1.50;;;;;;;;;;4960459;28;20445;-70
2021/09/16 12:08:51;;;;;;;1.80;1.20;;;;;;;;;;4972956;28;20870;-69
2021/09/16 12:11:20;;;;;;;3.15;1.33;;;;;;;;;;4985745;28;20413;-70
2021/09/16 12:13:45;;;;;;;4.03;1.23;;;;;;;;;;4974273;28;20188;-71
2021/09/16 12:16:11;;;;;;;3.17;1.15;;;;;;;;;;4982207;28;20195;-70
2021/09/16 12:18:38;;;;;;;1.63;1.00;;;;;;;;;;4976251;28;20192;-70
2021/09/16 12:21:04;;;;;;;1.60;1.13;;;;;;;;;;4977504;28;20851;-69
2021/09/16 12:23:29;;;;;;;1.85;1.00;;;;;;;;;;4970496;28;20180;-70
2021/09/16 12:25:57;;;;;;;2.95;1.65;;;;;;;;;;4972792;28;20185;-71
2021/09/16 12:28:22;;;;;;;2.67;1.45;;;;;;;;;;4970979;28;20192;-70
2021/09/16 12:30:48;;;;;;;2.05;1.40;;;;;;;;;;4971620;28;20650;-70
2021/09/16 12:33:25;;;;;;;4.53;1.67;;;;;;;;;;4969898;28;20188;-70
2021/09/16 12:36:10;;;;;;;2.22;1.50;;;;;;;;;;4972048;28;20219;-71
2021/09/16 12:38:39;;;;;;;3.00;1.90;;;;;;;;;;4953908;28;20806;-70
2021/09/16 12:41:41;;;;;;;2.55;1.48;;;;;;;;;;4978097;28;20218;-69
2021/09/16 12:44:08;;;;;;;3.17;1.52;;;;;;;;;;4899960;29;20194;-70
2021/09/16 12:46:41;;;;;;;3.92;1.40;;;;;;;;;;4956505;28;20280;-70
2021/09/16 12:49:06;;;;;;;1.55;1.40;;;;;;;;;;4970470;28;20207;-70
2021/09/16 12:51:32;;;;;;;2.08;1.40;;;;;;;;;;4970402;28;20188;-71
2021/09/16 12:54:00;;;;;;;2.78;1.73;;;;;;;;;;4969769;28;20634;-70
2021/09/16 12:56:26;;;;;;;3.40;1.80;;;;;;;;;;4967801;28;20199;-70
2021/09/16 12:58:51;;;;;;;4.25;2.08;;;;;;;;;;4975733;28;20190;-69
2021/09/16 13:01:17;;;;;;;1.77;1.63;;;;;;;;;;4975072;28;20282;-68
2021/09/16 13:03:59;;;;;;;2.95;1.90;;;;;;;;;;4968193;28;20840;-68
2021/09/16 13:06:29;;;;;;;5.18;1.90;;;;;;;;;;4972080;28;20216;-69
2021/09/16 13:08:54;;;;;;;3.25;2.28;;;;;;;;;;4972805;28;20650;-70
2021/09/16 13:11:20;;;;;;;2.53;1.77;;;;;;;;;;4971929;28;20225;-69
2021/09/16 13:13:46;;;;;;;2.10;1.60;;;;;;;;;;4972596;28;20175;-69
2021/09/16 13:16:11;;;;;;;2.30;1.73;;;;;;;;;;4972561;28;20213;-69
2021/09/16 13:18:37;;;;;;;2.83;2.50;;;;;;;;;;4969784;28;20200;-69
2021/09/16 13:21:03;;;;;;;3.70;1.70;;;;;;;;;;4958148;28;20582;-69
2021/09/16 13:23:28;;;;;;;3.03;1.77;;;;;;;;;;4973814;28;20577;-69
2021/09/16 13:25:53;;;;;;;4.63;2.08;;;;;;;;;;4973494;28;20194;-70
2021/09/16 13:28:19;;;;;;;3.50;2.30;;;;;;;;;;4970197;28;20196;-70
2021/09/16 13:30:44;;;;;;;5.43;2.00;;;;;;;;;;4968209;28;20233;-70
2021/09/16 13:33:10;;;;;;;2.28;1.88;;;;;;;;;;4974979;28;20258;-70
2021/09/16 13:35:35;;;;;;;5.95;2.63;;;;;;;;;;4970209;28;20221;-70
2021/09/16 13:38:00;;;;;;;3.63;2.15;;;;;;;;;;4970060;28;20311;-69
2021/09/16 13:40:26;;;;;;;3.90;3.50;;;;;;;;;;4973137;28;20192;-70
2021/09/16 13:42:52;;;;;;;3.85;3.45;;;;;;;;;;4976830;28;20443;-70
2021/09/16 13:45:17;;;;;;;5.40;4.20;;;;;;;;;;4971126;28;20187;-70
2021/09/16 13:47:46;;;;;;;5.95;4.85;;;;;;;;;;4972862;28;20460;-69
2021/09/16 13:50:16;;;;;;;6.05;5.00;;;;;;;;;;4970667;28;20215;-69
2021/09/16 13:52:41;;;;;;;5.32;4.93;;;;;;;;;;4972577;28;20195;-70
2021/09/16 13:55:07;;;;;;;6.22;4.57;;;;;;;;;;4976569;28;20649;-69
2021/09/16 13:57:32;;;;;;;5.43;4.93;;;;;;;;;;4972669;28;20269;-70
2021/09/16 13:59:57;;;;;;;6.35;5.75;;;;;;;;;;4969555;28;20798;-71
2021/09/16 14:02:23;;;;;;;5.17;4.23;;;;;;;;;;4968709;28;20207;-71
2021/09/16 14:04:48;;;;;;;7.55;5.65;;;;;;;;;;4971193;28;20973;-71
2021/09/16 14:07:13;;;;;;;5.90;5.30;;;;;;;;;;4969978;28;20235;-71
2021/09/16 14:09:38;;;;;;;6.80;5.50;;;;;;;;;;4970159;28;20214;-71
2021/09/16 14:12:03;;;;;;;5.70;5.10;;;;;;;;;;4977589;28;20479;-71
2021/09/16 14:14:29;;;;;;;8.57;5.22;;;;;;;;;;4969330;28;20657;-70
2021/09/16 14:16:54;;;;;;;7.13;5.33;;;;;;;;;;4977176;28;20200;-69
2021/09/16 14:19:19;;;;;;;6.38;5.25;;;;;;;;;;4971801;28;20472;-70
2021/09/16 14:21:44;;;;;;;8.45;5.97;;;;;;;;;;4977162;28;20595;-70
2021/09/16 14:24:10;;;;;;;8.47;6.30;;;;;;;;;;4967879;28;20613;-70
2021/09/16 14:26:35;;;;;;;6.85;5.85;;;;;;;;;;4973191;28;21040;-70
2021/09/16 14:29:01;;;;;;;5.95;5.38;;;;;;;;;;4957794;28;20210;-70
2021/09/16 14:31:26;;;;;;;7.00;5.47;;;;;;;;;;4970222;28;20180;-70
2021/09/16 14:33:51;;;;;;;5.85;5.25;;;;;;;;;;4968677;28;20267;-69
2021/09/16 14:36:16;;;;;;;7.05;6.20;;;;;;;;;;4972600;28;20812;-70
2021/09/16 14:38:43;;;;;;;7.13;6.40;;;;;;;;;;4972035;28;20674;-71